sensor_id;sensor_type;location;lat;lon;timestamp;temperature;humidity
11538;DHT22;50159;49.426;11.182;2024-03-02T00:00:30;6.20;99.90
11538;DHT22;50159;49.426;11.182;2024-03-02T00:02:57;6.20;99.90
11538;DHT22;50159;49.426;11.182;2024-03-02T00:05:23;6.20;99.90
11538;DHT22;50159;49.426;11.182;2024-03-02T00:07:56;6.10;99.90
11538;DHT22;50159;49.426;11.182;2024-03-02T00:10:27;6.10;99.90
11538;DHT22;50159;49.426;11.182;2024-03-02T00:12:58;6.10;99.90
11538;DHT22;50159;49.426;11.182;2024-03-02T00:18:03;6.10;99.90
11538;DHT22;50159;49.426;11.182;2024-03-02T00:20:31;6.10;99.90
11538;DHT22;50159;49.426;11.182;2024-03-02T00:23:02;6.10;99.90
11538;DHT22;50159;49.426;11.182;2024-03-02T00:25:37;6.10;99.90
11538;DHT22;50159;49.426;11.182;2024-03-02T00:28:05;6.10;99.90
11538;DHT22;50159;49.426;11.182;2024-03-02T00:30:41;6.10;99.90
11538;DHT22;50159;49.426;11.182;2024-03-02T00:33:10;6.10;99.90
11538;DHT22;50159;49.426;11.182;2024-03-02T00:35:37;6.10;99.90
11538;DHT22;50159;49.426;11.182;2024-03-02T00:38:07;6.10;99.90
11538;DHT22;50159;49.426;11.182;2024-03-02T00:40:33;6.10;99.90
11538;DHT22;50159;49.426;11.182;2024-03-02T00:43:00;6.10;99.90
11538;DHT22;50159;49.426;11.182;2024-03-02T00:45:28;6.10;99.90
11538;DHT22;50159;49.426;11.182;2024-03-02T00:47:55;6.10;99.90
11538;DHT22;50159;49.426;11.182;2024-03-02T00:50:22;6.10;99.90
11538;DHT22;50159;49.426;11.182;2024-03-02T00:52:56;6.10;99.90
11538;DHT22;50159;49.426;11.182;2024-03-02T00:55:23;6.10;99.90
11538;DHT22;50159;49.426;11.182;2024-03-02T00:57:49;6.10;99.90
11538;DHT22;50159;49.426;11.182;2024-03-02T01:00:16;6.10;99.90
11538;DHT22;50159;49.426;11.182;2024-03-02T01:02:44;6.10;99.90
11538;DHT22;50159;49.426;11.182;2024-03-02T01:05:12;6.10;99.90
11538;DHT22;50159;49.426;11.182;2024-03-02T01:07:39;6.10;99.90
11538;DHT22;50159;49.426;11.182;2024-03-02T01:10:06;6.10;99.90
11538;DHT22;50159;49.426;11.182;2024-03-02T01:12:33;6.10;99.90
11538;DHT22;50159;49.426;11.182;2024-03-02T01:14:59;6.10;99.90
11538;DHT22;50159;49.426;11.182;2024-03-02T01:17:26;6.10;99.90
11538;DHT22;50159;49.426;11.182;2024-03-02T01:19:53;6.10;99.90
11538;DHT22;50159;49.426;11.182;2024-03-02T01:22:19;6.10;99.90
11538;DHT22;50159;49.426;11.182;2024-03-02T01:24:51;6.10;99.90
11538;DHT22;50159;49.426;11.182;2024-03-02T01:27:18;6.10;99.90
11538;DHT22;50159;49.426;11.182;2024-03-02T01:29:45;6.00;99.90
11538;DHT22;50159;49.426;11.182;2024-03-02T01:32:11;6.00;99.90
11538;DHT22;50159;49.426;11.182;2024-03-02T01:34:38;6.00;99.90
11538;DHT22;50159;49.426;11.182;2024-03-02T01:37:05;6.00;99.90
11538;DHT22;50159;49.426;11.182;2024-03-02T01:39:31;6.00;99.90
11538;DHT22;50159;49.426;11.182;2024-03-02T01:41:58;6.00;99.90
11538;DHT22;50159;49.426;11.182;2024-03-02T01:44:25;6.00;99.90
11538;DHT22;50159;49.426;11.182;2024-03-02T01:46:51;5.90;99.90
11538;DHT22;50159;49.426;11.182;2024-03-02T01:49:18;5.90;99.90
11538;DHT22;50159;49.426;11.182;2024-03-02T01:51:45;5.90;99.90
11538;DHT22;50159;49.426;11.182;2024-03-02T01:54:12;5.90;99.90
11538;DHT22;50159;49.426;11.182;2024-03-02T01:56:39;5.90;99.90
11538;DHT22;50159;49.426;11.182;2024-03-02T01:59:06;5.80;99.90
11538;DHT22;50159;49.426;11.182;2024-03-02T02:01:32;5.80;99.90
11538;DHT22;50159;49.426;11.182;2024-03-02T02:03:59;5.80;99.90
11538;DHT22;50159;49.426;11.182;2024-03-02T02:06:27;5.80;99.90
11538;DHT22;50159;49.426;11.182;2024-03-02T02:08:54;5.80;99.90
11538;DHT22;50159;49.426;11.182;2024-03-02T02:11:20;5.80;99.90
11538;DHT22;50159;49.426;11.182;2024-03-02T02:13:47;5.80;99.90
11538;DHT22;50159;49.426;11.182;2024-03-02T02:16:13;5.80;99.90
11538;DHT22;50159;49.426;11.182;2024-03-02T02:18:40;5.80;99.90
11538;DHT22;50159;49.426;11.182;2024-03-02T02:21:08;5.70;99.90
11538;DHT22;50159;49.426;11.182;2024-03-02T02:23:34;5.70;99.90
11538;DHT22;50159;49.426;11.182;2024-03-02T02:26:01;5.70;99.90
11538;DHT22;50159;49.426;11.182;2024-03-02T02:28:29;5.70;99.90
11538;DHT22;50159;49.426;11.182;2024-03-02T02:30:56;5.70;99.90
11538;DHT22;50159;49.426;11.182;2024-03-02T02:33:23;5.70;99.90
11538;DHT22;50159;49.426;11.182;2024-03-02T02:35:49;5.70;99.90
11538;DHT22;50159;49.426;11.182;2024-03-02T02:38:16;5.70;99.90
11538;DHT22;50159;49.426;11.182;2024-03-02T02:40:43;5.70;99.90
11538;DHT22;50159;49.426;11.182;2024-03-02T02:43:09;5.70;99.90
11538;DHT22;50159;49.426;11.182;2024-03-02T02:45:36;5.70;99.90
11538;DHT22;50159;49.426;11.182;2024-03-02T02:48:03;5.70;99.90
11538;DHT22;50159;49.426;11.182;2024-03-02T02:50:29;5.70;99.90
11538;DHT22;50159;49.426;11.182;2024-03-02T02:52:56;5.70;99.90
11538;DHT22;50159;49.426;11.182;2024-03-02T02:55:23;5.70;99.90
11538;DHT22;50159;49.426;11.182;2024-03-02T02:57:49;5.70;99.90
11538;DHT22;50159;49.426;11.182;2024-03-02T03:00:16;5.70;99.90
11538;DHT22;50159;49.426;11.182;2024-03-02T03:02:46;5.70;99.90
11538;DHT22;50159;49.426;11.182;2024-03-02T03:05:13;5.70;99.90
11538;DHT22;50159;49.426;11.182;2024-03-02T03:07:41;5.80;99.90
11538;DHT22;50159;49.426;11.182;2024-03-02T03:10:08;5.80;99.90
11538;DHT22;50159;49.426;11.182;2024-03-02T03:12:35;5.80;99.90
11538;DHT22;50159;49.426;11.182;2024-03-02T03:15:02;5.80;99.90
11538;DHT22;50159;49.426;11.182;2024-03-02T03:17:30;5.80;99.90
11538;DHT22;50159;49.426;11.182;2024-03-02T03:19:57;5.80;99.90
11538;DHT22;50159;49.426;11.182;2024-03-02T03:22:24;5.80;99.90
11538;DHT22;50159;49.426;11.182;2024-03-02T03:24:51;5.80;99.90
11538;DHT22;50159;49.426;11.182;2024-03-02T03:27:18;5.80;99.90
11538;DHT22;50159;49.426;11.182;2024-03-02T03:29:46;5.80;99.90
11538;DHT22;50159;49.426;11.182;2024-03-02T03:32:13;5.80;99.90
11538;DHT22;50159;49.426;11.182;2024-03-02T03:34:39;5.80;99.90
11538;DHT22;50159;49.426;11.182;2024-03-02T03:37:06;5.80;99.90
11538;DHT22;50159;49.426;11.182;2024-03-02T03:39:34;5.90;99.90
11538;DHT22;50159;49.426;11.182;2024-03-02T03:42:00;5.90;99.90
11538;DHT22;50159;49.426;11.182;2024-03-02T03:44:27;6.00;99.90
11538;DHT22;50159;49.426;11.182;2024-03-02T03:46:53;6.00;99.90
11538;DHT22;50159;49.426;11.182;2024-03-02T03:49:20;6.00;99.90
11538;DHT22;50159;49.426;11.182;2024-03-02T03:51:47;6.00;99.90
11538;DHT22;50159;49.426;11.182;2024-03-02T03:54:13;6.10;99.90
11538;DHT22;50159;49.426;11.182;2024-03-02T03:56:40;6.10;99.90
11538;DHT22;50159;49.426;11.182;2024-03-02T03:59:07;6.10;99.90
11538;DHT22;50159;49.426;11.182;2024-03-02T04:01:33;6.10;99.90
11538;DHT22;50159;49.426;11.182;2024-03-02T04:04:00;6.10;99.90
11538;DHT22;50159;49.426;11.182;2024-03-02T04:06:28;6.10;99.90
11538;DHT22;50159;49.426;11.182;2024-03-02T04:08:55;6.10;99.90
11538;DHT22;50159;49.426;11.182;2024-03-02T04:11:22;6.10;99.90
11538;DHT22;50159;49.426;11.182;2024-03-02T04:13:48;6.10;99.90
11538;DHT22;50159;49.426;11.182;2024-03-02T04:16:15;6.10;99.90
11538;DHT22;50159;49.426;11.182;2024-03-02T04:18:41;6.10;99.90
11538;DHT22;50159;49.426;11.182;2024-03-02T04:21:08;6.10;99.90
11538;DHT22;50159;49.426;11.182;2024-03-02T04:23:35;6.10;99.90
11538;DHT22;50159;49.426;11.182;2024-03-02T04:26:01;6.10;99.90
11538;DHT22;50159;49.426;11.182;2024-03-02T04:28:28;6.00;99.90
11538;DHT22;50159;49.426;11.182;2024-03-02T04:30:54;6.00;99.90
11538;DHT22;50159;49.426;11.182;2024-03-02T04:33:21;6.00;99.90
11538;DHT22;50159;49.426;11.182;2024-03-02T04:35:48;5.90;99.90
11538;DHT22;50159;49.426;11.182;2024-03-02T04:38:14;5.90;99.90
11538;DHT22;50159;49.426;11.182;2024-03-02T04:40:41;5.90;99.90
11538;DHT22;50159;49.426;11.182;2024-03-02T04:43:08;5.90;99.90
11538;DHT22;50159;49.426;11.182;2024-03-02T04:45:37;5.90;99.90
11538;DHT22;50159;49.426;11.182;2024-03-02T04:48:04;5.90;99.90
11538;DHT22;50159;49.426;11.182;2024-03-02T04:50:31;5.80;99.90
11538;DHT22;50159;49.426;11.182;2024-03-02T04:52:58;5.80;99.90
11538;DHT22;50159;49.426;11.182;2024-03-02T04:55:24;5.80;99.90
11538;DHT22;50159;49.426;11.182;2024-03-02T04:58:01;5.80;99.90
11538;DHT22;50159;49.426;11.182;2024-03-02T05:00:28;5.70;99.90
11538;DHT22;50159;49.426;11.182;2024-03-02T05:02:55;5.70;99.90
11538;DHT22;50159;49.426;11.182;2024-03-02T05:05:21;5.70;99.90
11538;DHT22;50159;49.426;11.182;2024-03-02T05:07:48;5.70;99.90
11538;DHT22;50159;49.426;11.182;2024-03-02T05:10:15;5.70;99.90
11538;DHT22;50159;49.426;11.182;2024-03-02T05:12:41;5.60;99.90
11538;DHT22;50159;49.426;11.182;2024-03-02T05:15:14;5.60;99.90
11538;DHT22;50159;49.426;11.182;2024-03-02T05:17:41;5.60;99.90
11538;DHT22;50159;49.426;11.182;2024-03-02T05:20:11;5.60;99.90
11538;DHT22;50159;49.426;11.182;2024-03-02T05:22:38;5.50;99.90
11538;DHT22;50159;49.426;11.182;2024-03-02T05:25:06;5.50;99.90
11538;DHT22;50159;49.426;11.182;2024-03-02T05:27:33;5.50;99.90
11538;DHT22;50159;49.426;11.182;2024-03-02T05:30:00;5.50;99.90
11538;DHT22;50159;49.426;11.182;2024-03-02T05:32:27;5.50;99.90
11538;DHT22;50159;49.426;11.182;2024-03-02T05:34:53;5.50;99.90
11538;DHT22;50159;49.426;11.182;2024-03-02T05:37:21;5.50;99.90
11538;DHT22;50159;49.426;11.182;2024-03-02T05:39:48;5.40;99.90
11538;DHT22;50159;49.426;11.182;2024-03-02T05:42:14;5.40;99.90
11538;DHT22;50159;49.426;11.182;2024-03-02T05:44:43;5.40;99.90
11538;DHT22;50159;49.426;11.182;2024-03-02T05:47:09;5.40;99.90
11538;DHT22;50159;49.426;11.182;2024-03-02T05:49:36;5.30;99.90
11538;DHT22;50159;49.426;11.182;2024-03-02T05:52:03;5.40;99.90
11538;DHT22;50159;49.426;11.182;2024-03-02T05:54:30;5.40;99.90
11538;DHT22;50159;49.426;11.182;2024-03-02T05:56:56;5.30;99.90
11538;DHT22;50159;49.426;11.182;2024-03-02T05:59:23;5.40;99.90
11538;DHT22;50159;49.426;11.182;2024-03-02T06:01:49;5.40;99.90
11538;DHT22;50159;49.426;11.182;2024-03-02T06:04:19;5.40;99.90
11538;DHT22;50159;49.426;11.182;2024-03-02T06:06:46;5.50;99.90
11538;DHT22;50159;49.426;11.182;2024-03-02T06:09:12;5.50;99.90
11538;DHT22;50159;49.426;11.182;2024-03-02T06:11:40;5.50;99.90
11538;DHT22;50159;49.426;11.182;2024-03-02T06:14:07;5.50;99.90
11538;DHT22;50159;49.426;11.182;2024-03-02T06:16:34;5.50;99.90
11538;DHT22;50159;49.426;11.182;2024-03-02T06:19:01;5.50;99.90
11538;DHT22;50159;49.426;11.182;2024-03-02T06:21:27;5.50;99.90
11538;DHT22;50159;49.426;11.182;2024-03-02T06:23:54;5.60;99.90
11538;DHT22;50159;49.426;11.182;2024-03-02T06:26:21;5.60;99.90
11538;DHT22;50159;49.426;11.182;2024-03-02T06:28:51;5.60;99.90
11538;DHT22;50159;49.426;11.182;2024-03-02T06:31:18;5.60;99.90
11538;DHT22;50159;49.426;11.182;2024-03-02T06:33:45;5.60;99.90
11538;DHT22;50159;49.426;11.182;2024-03-02T06:36:12;5.60;99.90
11538;DHT22;50159;49.426;11.182;2024-03-02T06:38:39;5.70;99.90
11538;DHT22;50159;49.426;11.182;2024-03-02T06:41:09;5.70;99.90
11538;DHT22;50159;49.426;11.182;2024-03-02T06:43:36;5.70;99.90
11538;DHT22;50159;49.426;11.182;2024-03-02T06:46:02;5.70;99.90
11538;DHT22;50159;49.426;11.182;2024-03-02T06:48:29;5.70;99.90
11538;DHT22;50159;49.426;11.182;2024-03-02T06:50:56;5.70;99.90
11538;DHT22;50159;49.426;11.182;2024-03-02T06:53:24;5.70;99.90
11538;DHT22;50159;49.426;11.182;2024-03-02T06:55:51;5.80;99.90
11538;DHT22;50159;49.426;11.182;2024-03-02T06:58:18;5.80;99.90
11538;DHT22;50159;49.426;11.182;2024-03-02T07:00:45;5.90;99.90
11538;DHT22;50159;49.426;11.182;2024-03-02T07:03:11;5.90;99.90
11538;DHT22;50159;49.426;11.182;2024-03-02T07:05:38;5.90;99.90
11538;DHT22;50159;49.426;11.182;2024-03-02T07:08:05;6.00;99.90
11538;DHT22;50159;49.426;11.182;2024-03-02T07:10:32;6.10;99.90
11538;DHT22;50159;49.426;11.182;2024-03-02T07:12:59;6.10;99.90
11538;DHT22;50159;49.426;11.182;2024-03-02T07:15:26;6.20;99.90
11538;DHT22;50159;49.426;11.182;2024-03-02T07:18:11;6.30;99.90
11538;DHT22;50159;49.426;11.182;2024-03-02T07:20:38;6.40;99.90
11538;DHT22;50159;49.426;11.182;2024-03-02T07:23:05;6.40;99.90
11538;DHT22;50159;49.426;11.182;2024-03-02T07:25:32;6.50;99.90
11538;DHT22;50159;49.426;11.182;2024-03-02T07:28:02;6.60;99.90
11538;DHT22;50159;49.426;11.182;2024-03-02T07:30:29;6.70;99.90
11538;DHT22;50159;49.426;11.182;2024-03-02T07:32:59;6.80;99.90
11538;DHT22;50159;49.426;11.182;2024-03-02T07:35:26;6.90;99.90
11538;DHT22;50159;49.426;11.182;2024-03-02T07:37:53;7.00;99.90
11538;DHT22;50159;49.426;11.182;2024-03-02T07:40:20;7.20;99.90
11538;DHT22;50159;49.426;11.182;2024-03-02T07:42:47;7.30;99.90
11538;DHT22;50159;49.426;11.182;2024-03-02T07:45:13;7.40;99.90
11538;DHT22;50159;49.426;11.182;2024-03-02T07:47:40;7.50;99.90
11538;DHT22;50159;49.426;11.182;2024-03-02T07:50:07;7.60;99.90
11538;DHT22;50159;49.426;11.182;2024-03-02T07:52:34;7.90;99.90
11538;DHT22;50159;49.426;11.182;2024-03-02T07:55:00;7.90;99.90
11538;DHT22;50159;49.426;11.182;2024-03-02T07:57:27;8.00;99.90
11538;DHT22;50159;49.426;11.182;2024-03-02T07:59:54;8.10;99.90
11538;DHT22;50159;49.426;11.182;2024-03-02T08:02:20;8.00;99.90
11538;DHT22;50159;49.426;11.182;2024-03-02T08:04:48;8.00;99.90
11538;DHT22;50159;49.426;11.182;2024-03-02T08:07:15;8.00;99.90
11538;DHT22;50159;49.426;11.182;2024-03-02T08:09:41;8.00;99.90
11538;DHT22;50159;49.426;11.182;2024-03-02T08:12:08;8.00;99.90
11538;DHT22;50159;49.426;11.182;2024-03-02T08:14:35;8.00;99.90
11538;DHT22;50159;49.426;11.182;2024-03-02T08:17:01;8.00;99.90
11538;DHT22;50159;49.426;11.182;2024-03-02T08:19:28;8.00;99.90
11538;DHT22;50159;49.426;11.182;2024-03-02T08:21:55;8.00;99.90
11538;DHT22;50159;49.426;11.182;2024-03-02T08:24:22;8.10;99.90
11538;DHT22;50159;49.426;11.182;2024-03-02T08:26:48;8.10;99.90
11538;DHT22;50159;49.426;11.182;2024-03-02T08:29:15;8.10;99.90
11538;DHT22;50159;49.426;11.182;2024-03-02T08:31:41;8.10;99.90
11538;DHT22;50159;49.426;11.182;2024-03-02T08:34:08;8.20;99.90
11538;DHT22;50159;49.426;11.182;2024-03-02T08:36:35;8.30;99.90
11538;DHT22;50159;49.426;11.182;2024-03-02T08:39:03;8.30;99.90
11538;DHT22;50159;49.426;11.182;2024-03-02T08:41:29;8.40;99.90
11538;DHT22;50159;49.426;11.182;2024-03-02T08:43:56;8.50;99.90
11538;DHT22;50159;49.426;11.182;2024-03-02T08:46:23;8.60;99.90
11538;DHT22;50159;49.426;11.182;2024-03-02T08:48:49;8.80;99.90
11538;DHT22;50159;49.426;11.182;2024-03-02T08:51:16;8.90;99.90
11538;DHT22;50159;49.426;11.182;2024-03-02T08:53:43;9.10;99.90
11538;DHT22;50159;49.426;11.182;2024-03-02T08:56:10;9.20;99.90
11538;DHT22;50159;49.426;11.182;2024-03-02T08:58:36;9.30;99.90
11538;DHT22;50159;49.426;11.182;2024-03-02T09:01:03;9.50;99.90
11538;DHT22;50159;49.426;11.182;2024-03-02T09:03:30;9.70;99.90
11538;DHT22;50159;49.426;11.182;2024-03-02T09:05:59;9.80;99.90
11538;DHT22;50159;49.426;11.182;2024-03-02T09:08:26;9.90;99.90
11538;DHT22;50159;49.426;11.182;2024-03-02T09:10:52;10.10;99.90
11538;DHT22;50159;49.426;11.182;2024-03-02T09:13:19;10.20;99.90
11538;DHT22;50159;49.426;11.182;2024-03-02T09:15:46;10.30;99.90
11538;DHT22;50159;49.426;11.182;2024-03-02T09:18:13;10.30;99.90
11538;DHT22;50159;49.426;11.182;2024-03-02T09:20:40;10.30;99.90
11538;DHT22;50159;49.426;11.182;2024-03-02T09:23:06;10.40;99.90
11538;DHT22;50159;49.426;11.182;2024-03-02T09:25:33;10.50;99.90
11538;DHT22;50159;49.426;11.182;2024-03-02T09:27:59;10.50;99.90
11538;DHT22;50159;49.426;11.182;2024-03-02T09:30:26;10.50;99.90
11538;DHT22;50159;49.426;11.182;2024-03-02T09:32:53;10.60;99.90
11538;DHT22;50159;49.426;11.182;2024-03-02T09:35:40;10.70;99.90
11538;DHT22;50159;49.426;11.182;2024-03-02T09:38:06;10.70;99.90
11538;DHT22;50159;49.426;11.182;2024-03-02T09:40:33;10.80;99.90
11538;DHT22;50159;49.426;11.182;2024-03-02T09:43:00;10.80;99.90
11538;DHT22;50159;49.426;11.182;2024-03-02T09:45:27;10.80;99.90
11538;DHT22;50159;49.426;11.182;2024-03-02T09:47:54;10.90;99.90
11538;DHT22;50159;49.426;11.182;2024-03-02T09:50:21;11.10;99.90
11538;DHT22;50159;49.426;11.182;2024-03-02T09:52:48;11.20;99.90
11538;DHT22;50159;49.426;11.182;2024-03-02T09:55:16;11.30;99.90
11538;DHT22;50159;49.426;11.182;2024-03-02T09:57:47;11.30;99.90
11538;DHT22;50159;49.426;11.182;2024-03-02T10:00:15;11.30;99.90
11538;DHT22;50159;49.426;11.182;2024-03-02T10:02:42;11.40;99.90
11538;DHT22;50159;49.426;11.182;2024-03-02T10:05:09;11.50;99.90
11538;DHT22;50159;49.426;11.182;2024-03-02T10:07:36;11.60;99.90
11538;DHT22;50159;49.426;11.182;2024-03-02T10:10:12;11.50;99.90
11538;DHT22;50159;49.426;11.182;2024-03-02T10:12:39;11.60;99.90
11538;DHT22;50159;49.426;11.182;2024-03-02T10:15:06;11.60;99.90
11538;DHT22;50159;49.426;11.182;2024-03-02T10:17:33;11.60;99.90
11538;DHT22;50159;49.426;11.182;2024-03-02T10:20:20;11.70;99.90
11538;DHT22;50159;49.426;11.182;2024-03-02T10:22:47;11.70;99.90
11538;DHT22;50159;49.426;11.182;2024-03-02T10:25:29;11.80;99.90
11538;DHT22;50159;49.426;11.182;2024-03-02T10:28:12;11.80;99.90
11538;DHT22;50159;49.426;11.182;2024-03-02T10:30:39;12.00;99.90
11538;DHT22;50159;49.426;11.182;2024-03-02T10:33:06;12.00;99.90
11538;DHT22;50159;49.426;11.182;2024-03-02T10:35:32;12.10;99.90
11538;DHT22;50159;49.426;11.182;2024-03-02T10:38:03;12.00;99.90
11538;DHT22;50159;49.426;11.182;2024-03-02T10:40:30;12.00;99.90
11538;DHT22;50159;49.426;11.182;2024-03-02T10:42:58;12.00;99.90
11538;DHT22;50159;49.426;11.182;2024-03-02T10:45:25;12.10;99.90
11538;DHT22;50159;49.426;11.182;2024-03-02T10:47:51;12.20;99.90
11538;DHT22;50159;49.426;11.182;2024-03-02T10:50:18;12.20;99.90
11538;DHT22;50159;49.426;11.182;2024-03-02T10:52:45;12.30;99.90
11538;DHT22;50159;49.426;11.182;2024-03-02T10:55:11;12.40;99.90
11538;DHT22;50159;49.426;11.182;2024-03-02T10:57:40;12.40;99.90
11538;DHT22;50159;49.426;11.182;2024-03-02T11:00:08;12.50;99.90
11538;DHT22;50159;49.426;11.182;2024-03-02T11:02:46;12.50;99.80
11538;DHT22;50159;49.426;11.182;2024-03-02T11:05:17;12.60;99.90
11538;DHT22;50159;49.426;11.182;2024-03-02T11:07:47;12.80;99.40
11538;DHT22;50159;49.426;11.182;2024-03-02T11:10:14;13.00;98.40
11538;DHT22;50159;49.426;11.182;2024-03-02T11:12:44;13.00;98.10
11538;DHT22;50159;49.426;11.182;2024-03-02T11:15:16;13.10;98.50
11538;DHT22;50159;49.426;11.182;2024-03-02T11:17:43;13.20;98.30
11538;DHT22;50159;49.426;11.182;2024-03-02T11:20:10;13.30;97.30
11538;DHT22;50159;49.426;11.182;2024-03-02T11:22:37;13.30;96.10
11538;DHT22;50159;49.426;11.182;2024-03-02T11:25:04;13.40;95.70
11538;DHT22;50159;49.426;11.182;2024-03-02T11:32:59;13.60;95.80
11538;DHT22;50159;49.426;11.182;2024-03-02T11:35:26;13.80;93.80
11538;DHT22;50159;49.426;11.182;2024-03-02T11:37:55;13.80;93.50
11538;DHT22;50159;49.426;11.182;2024-03-02T11:40:22;13.90;94.50
11538;DHT22;50159;49.426;11.182;2024-03-02T11:42:49;13.90;92.80
11538;DHT22;50159;49.426;11.182;2024-03-02T11:45:24;13.90;92.10
11538;DHT22;50159;49.426;11.182;2024-03-02T11:47:55;13.80;93.60
11538;DHT22;50159;49.426;11.182;2024-03-02T11:53:07;14.00;93.60
11538;DHT22;50159;49.426;11.182;2024-03-02T11:55:38;14.10;92.80
11538;DHT22;50159;49.426;11.182;2024-03-02T11:58:15;14.10;93.30
11538;DHT22;50159;49.426;11.182;2024-03-02T12:00:47;14.20;92.50
11538;DHT22;50159;49.426;11.182;2024-03-02T12:03:14;14.30;91.30
11538;DHT22;50159;49.426;11.182;2024-03-02T12:05:42;14.30;90.00
11538;DHT22;50159;49.426;11.182;2024-03-02T12:08:08;14.20;91.10
11538;DHT22;50159;49.426;11.182;2024-03-02T12:10:36;14.20;91.30
11538;DHT22;50159;49.426;11.182;2024-03-02T12:13:03;14.20;90.10
11538;DHT22;50159;49.426;11.182;2024-03-02T12:15:31;14.00;90.10
11538;DHT22;50159;49.426;11.182;2024-03-02T12:17:59;13.90;90.50
11538;DHT22;50159;49.426;11.182;2024-03-02T12:20:27;13.80;90.30
11538;DHT22;50159;49.426;11.182;2024-03-02T12:22:56;13.80;89.90
11538;DHT22;50159;49.426;11.182;2024-03-02T12:25:24;13.80;90.10
11538;DHT22;50159;49.426;11.182;2024-03-02T12:27:54;13.90;89.20
11538;DHT22;50159;49.426;11.182;2024-03-02T12:30:21;13.90;88.90
11538;DHT22;50159;49.426;11.182;2024-03-02T12:32:48;14.00;89.70
11538;DHT22;50159;49.426;11.182;2024-03-02T12:35:15;14.10;88.20
11538;DHT22;50159;49.426;11.182;2024-03-02T12:37:47;14.10;88.60
11538;DHT22;50159;49.426;11.182;2024-03-02T12:40:15;14.20;90.10
11538;DHT22;50159;49.426;11.182;2024-03-02T12:42:44;14.40;88.10
11538;DHT22;50159;49.426;11.182;2024-03-02T12:45:11;14.40;86.60
11538;DHT22;50159;49.426;11.182;2024-03-02T12:47:42;14.40;86.60
11538;DHT22;50159;49.426;11.182;2024-03-02T12:50:09;14.40;87.90
11538;DHT22;50159;49.426;11.182;2024-03-02T12:52:36;14.40;87.50
11538;DHT22;50159;49.426;11.182;2024-03-02T12:55:04;14.60;87.20
11538;DHT22;50159;49.426;11.182;2024-03-02T12:57:31;14.70;83.90
11538;DHT22;50159;49.426;11.182;2024-03-02T13:02:29;14.80;84.90
11538;DHT22;50159;49.426;11.182;2024-03-02T13:04:56;15.00;86.00
11538;DHT22;50159;49.426;11.182;2024-03-02T13:07:24;15.20;83.60
11538;DHT22;50159;49.426;11.182;2024-03-02T13:09:52;15.40;81.80
11538;DHT22;50159;49.426;11.182;2024-03-02T13:12:19;15.40;81.80
11538;DHT22;50159;49.426;11.182;2024-03-02T13:14:48;15.40;80.40
11538;DHT22;50159;49.426;11.182;2024-03-02T13:17:14;15.30;77.90
11538;DHT22;50159;49.426;11.182;2024-03-02T13:19:53;14.90;79.10
11538;DHT22;50159;49.426;11.182;2024-03-02T13:22:21;14.80;81.80
11538;DHT22;50159;49.426;11.182;2024-03-02T13:24:48;14.70;82.50
11538;DHT22;50159;49.426;11.182;2024-03-02T13:27:15;14.80;82.80
11538;DHT22;50159;49.426;11.182;2024-03-02T13:29:42;14.90;82.20
11538;DHT22;50159;49.426;11.182;2024-03-02T13:32:09;15.00;82.20
11538;DHT22;50159;49.426;11.182;2024-03-02T13:34:38;15.30;81.70
11538;DHT22;50159;49.426;11.182;2024-03-02T13:37:05;15.40;81.90
11538;DHT22;50159;49.426;11.182;2024-03-02T13:39:32;15.60;79.60
11538;DHT22;50159;49.426;11.182;2024-03-02T13:41:59;15.60;80.00
11538;DHT22;50159;49.426;11.182;2024-03-02T13:44:32;15.70;78.10
11538;DHT22;50159;49.426;11.182;2024-03-02T13:46:59;15.70;77.50
11538;DHT22;50159;49.426;11.182;2024-03-02T13:49:26;15.60;78.50
11538;DHT22;50159;49.426;11.182;2024-03-02T13:52:05;15.70;78.10
11538;DHT22;50159;49.426;11.182;2024-03-02T13:54:37;15.60;76.40
11538;DHT22;50159;49.426;11.182;2024-03-02T13:57:06;15.50;75.60
11538;DHT22;50159;49.426;11.182;2024-03-02T13:59:33;15.40;76.90
11538;DHT22;50159;49.426;11.182;2024-03-02T14:02:01;15.40;77.40
11538;DHT22;50159;49.426;11.182;2024-03-02T14:04:28;15.60;74.70
11538;DHT22;50159;49.426;11.182;2024-03-02T14:06:54;15.60;76.00
11538;DHT22;50159;49.426;11.182;2024-03-02T14:09:22;15.70;74.30
11538;DHT22;50159;49.426;11.182;2024-03-02T14:11:53;15.70;74.70
11538;DHT22;50159;49.426;11.182;2024-03-02T14:14:20;15.90;76.10
11538;DHT22;50159;49.426;11.182;2024-03-02T14:16:46;16.40;73.60
11538;DHT22;50159;49.426;11.182;2024-03-02T14:19:13;16.90;70.60
11538;DHT22;50159;49.426;11.182;2024-03-02T14:21:40;17.30;70.20
11538;DHT22;50159;49.426;11.182;2024-03-02T14:24:06;17.70;69.10
11538;DHT22;50159;49.426;11.182;2024-03-02T14:26:33;18.20;66.80
11538;DHT22;50159;49.426;11.182;2024-03-02T14:29:00;18.30;65.10
11538;DHT22;50159;49.426;11.182;2024-03-02T14:31:30;18.50;62.60
11538;DHT22;50159;49.426;11.182;2024-03-02T14:33:58;18.20;62.20
11538;DHT22;50159;49.426;11.182;2024-03-02T14:36:25;18.30;63.50
11538;DHT22;50159;49.426;11.182;2024-03-02T14:38:54;18.50;62.90
11538;DHT22;50159;49.426;11.182;2024-03-02T14:41:21;18.60;62.20
11538;DHT22;50159;49.426;11.182;2024-03-02T14:43:48;18.50;61.00
11538;DHT22;50159;49.426;11.182;2024-03-02T14:46:15;18.20;62.30
11538;DHT22;50159;49.426;11.182;2024-03-02T14:48:43;17.90;62.60
11538;DHT22;50159;49.426;11.182;2024-03-02T14:51:10;17.90;62.90
11538;DHT22;50159;49.426;11.182;2024-03-02T14:53:37;17.80;62.60
11538;DHT22;50159;49.426;11.182;2024-03-02T14:56:04;17.50;64.30
11538;DHT22;50159;49.426;11.182;2024-03-02T14:58:31;17.30;64.80
11538;DHT22;50159;49.426;11.182;2024-03-02T15:00:58;17.30;65.80
11538;DHT22;50159;49.426;11.182;2024-03-02T15:03:25;17.30;65.40
11538;DHT22;50159;49.426;11.182;2024-03-02T15:05:52;17.30;64.30
11538;DHT22;50159;49.426;11.182;2024-03-02T15:08:20;17.30;66.40
11538;DHT22;50159;49.426;11.182;2024-03-02T15:10:46;17.60;66.40
11538;DHT22;50159;49.426;11.182;2024-03-02T15:13:13;17.70;63.90
11538;DHT22;50159;49.426;11.182;2024-03-02T15:15:40;17.70;63.50
11538;DHT22;50159;49.426;11.182;2024-03-02T15:18:07;17.90;65.60
11538;DHT22;50159;49.426;11.182;2024-03-02T15:20:35;18.30;65.20
11538;DHT22;50159;49.426;11.182;2024-03-02T15:23:02;18.70;61.10
11538;DHT22;50159;49.426;11.182;2024-03-02T15:25:28;18.10;61.10
11538;DHT22;50159;49.426;11.182;2024-03-02T15:27:55;17.40;63.10
11538;DHT22;50159;49.426;11.182;2024-03-02T15:30:22;16.60;65.50
11538;DHT22;50159;49.426;11.182;2024-03-02T15:32:49;16.00;68.00
11538;DHT22;50159;49.426;11.182;2024-03-02T15:35:16;15.60;69.00
11538;DHT22;50159;49.426;11.182;2024-03-02T15:37:42;15.30;70.80
11538;DHT22;50159;49.426;11.182;2024-03-02T15:40:09;15.40;70.40